Time;durP1;ratioP1;P1;durP2;ratioP2;P2;SDS_P1;SDS_P2;PMS_P1;PMS_P2;Temp;Humidity;BMP_temperature;BMP_pressure;BME280_temperature;BME280_humidity;BME280_pressure;Samples;Min_cycle;Max_cycle;Signal;HPM_P1;HPM_P2
2023/01/16 00:01:54;;;;;;;7.22;3.95;;;5.10;99.90;;;;;;5041242;28;20093;-70
2023/01/16 00:04:20;;;;;;;14.00;4.20;;;5.10;99.90;;;;;;5039721;28;20030;-73
2023/01/16 00:06:46;;;;;;;12.63;4.05;;;5.10;99.90;;;;;;5043299;28;20034;-71
2023/01/16 00:09:12;;;;;;;13.25;4.38;;;5.10;99.90;;;;;;5042162;28;20040;-69
2023/01/16 00:11:38;;;;;;;9.65;3.88;;;5.10;99.90;;;;;;5044660;28;20029;-70
2023/01/16 00:14:04;;;;;;;9.05;4.45;;;5.10;99.90;;;;;;5042685;28;20067;-72
2023/01/16 00:16:29;;;;;;;10.77;4.05;;;5.10;99.90;;;;;;5044443;28;20029;-72
2023/01/16 00:18:55;;;;;;;11.88;3.63;;;5.10;99.90;;;;;;5044418;28;20068;-71
2023/01/16 00:21:25;;;;;;;8.27;3.47;;;5.10;99.90;;;;;;5044235;28;20017;-72
2023/01/16 00:23:56;;;;;;;11.23;3.47;;;5.10;99.90;;;;;;5040786;28;20068;-72
2023/01/16 00:26:26;;;;;;;6.70;3.58;;;5.10;99.90;;;;;;5043356;28;20052;-73
2023/01/16 00:28:52;;;;;;;11.15;3.45;;;5.10;99.90;;;;;;5043780;28;20025;-73
2023/01/16 00:31:19;;;;;;;9.27;3.30;;;5.20;99.90;;;;;;5044208;28;20063;-72
2023/01/16 00:33:49;;;;;;;7.07;2.67;;;5.10;99.90;;;;;;5040011;28;20025;-73
2023/01/16 00:36:15;;;;;;;9.00;3.25;;;5.10;99.90;;;;;;5043135;28;20026;-72
2023/01/16 00:38:40;;;;;;;7.68;2.97;;;5.20;99.90;;;;;;5043885;28;20025;-69
2023/01/16 00:41:06;;;;;;;6.43;2.50;;;5.20;99.90;;;;;;5041980;28;20471;-72
2023/01/16 00:43:33;;;;;;;10.27;2.67;;;5.10;99.90;;;;;;5041031;28;20053;-72
2023/01/16 00:45:58;;;;;;;5.53;2.10;;;5.10;99.90;;;;;;5043024;28;20421;-72
2023/01/16 00:48:24;;;;;;;6.50;2.63;;;5.10;99.90;;;;;;5043206;28;20028;-71
2023/01/16 00:50:50;;;;;;;9.52;2.40;;;5.00;99.90;;;;;;5041755;28;20040;-72
2023/01/16 00:53:16;;;;;;;9.55;2.53;;;5.00;99.90;;;;;;5042577;28;20025;-72
2023/01/16 00:55:42;;;;;;;5.78;2.50;;;5.00;99.90;;;;;;5043194;28;20025;-70
2023/01/16 00:58:09;;;;;;;6.45;2.60;;;5.00;99.90;;;;;;5039515;28;20068;-70
2023/01/16 01:00:36;;;;;;;9.73;2.80;;;5.20;99.90;;;;;;5040085;28;20954;-71
2023/01/16 01:03:02;;;;;;;8.93;3.13;;;5.10;99.90;;;;;;5039988;28;20041;-73
2023/01/16 01:05:28;;;;;;;10.13;3.30;;;5.10;99.90;;;;;;5040176;28;20412;-71
2023/01/16 01:07:53;;;;;;;15.68;3.85;;;5.10;99.90;;;;;;5040637;28;20049;-69
2023/01/16 01:10:19;;;;;;;9.25;3.63;;;5.10;99.90;;;;;;5040109;28;20038;-70
2023/01/16 01:12:45;;;;;;;16.23;3.65;;;5.10;99.90;;;;;;5040498;28;20415;-72
2023/01/16 01:15:11;;;;;;;13.68;3.42;;;5.10;99.90;;;;;;5041789;28;20025;-71
2023/01/16 01:17:37;;;;;;;10.50;3.47;;;5.00;99.90;;;;;;5039426;28;20076;-73
2023/01/16 01:20:03;;;;;;;11.05;3.05;;;5.00;99.90;;;;;;5039469;28;20029;-73
2023/01/16 01:22:29;;;;;;;7.75;2.75;;;5.00;99.90;;;;;;5039175;28;20037;-72
2023/01/16 01:24:55;;;;;;;8.75;2.95;;;5.00;99.90;;;;;;5038857;28;20379;-72
2023/01/16 01:27:24;;;;;;;7.50;2.67;;;5.00;99.90;;;;;;5040203;28;20036;-74
2023/01/16 01:29:50;;;;;;;9.13;2.53;;;5.00;99.90;;;;;;5040355;28;20087;-71
2023/01/16 01:32:16;;;;;;;8.27;2.75;;;5.00;99.90;;;;;;5040985;28;20458;-73
2023/01/16 01:34:42;;;;;;;8.70;3.22;;;5.00;99.90;;;;;;5039916;28;21468;-70
2023/01/16 01:37:09;;;;;;;6.68;2.47;;;5.00;99.90;;;;;;5039616;28;20025;-72
2023/01/16 01:39:35;;;;;;;12.80;3.47;;;5.00;99.90;;;;;;5038846;28;20034;-72
2023/01/16 01:44:54;;;;;;;12.43;3.60;;;4.90;99.90;;;;;;5041263;28;20379;-72
2023/01/16 01:47:33;;;;;;;7.10;3.10;;;4.90;99.90;;;;;;5039552;28;20028;-73
2023/01/16 01:50:02;;;;;;;12.10;3.67;;;4.90;99.90;;;;;;5040224;28;20036;-72
2023/01/16 01:52:29;;;;;;;9.05;3.20;;;4.90;99.90;;;;;;5041255;28;20018;-72
2023/01/16 01:54:58;;;;;;;8.25;2.55;;;4.90;99.90;;;;;;5040303;28;20030;-74
2023/01/16 01:57:31;;;;;;;8.57;2.95;;;5.00;99.90;;;;;;5039022;28;20045;-72
2023/01/16 02:00:02;;;;;;;7.32;3.17;;;4.90;99.90;;;;;;5039294;28;20048;-70
2023/01/16 02:02:36;;;;;;;7.28;2.70;;;4.90;99.90;;;;;;5039911;28;20060;-72
2023/01/16 02:05:05;;;;;;;10.75;3.22;;;4.90;99.90;;;;;;5039544;28;20068;-74
2023/01/16 02:07:31;;;;;;;9.60;3.10;;;4.90;99.90;;;;;;5037892;28;20034;-70
2023/01/16 02:10:11;;;;;;;6.07;2.63;;;4.90;99.90;;;;;;5040020;28;20431;-73
2023/01/16 02:12:37;;;;;;;6.32;2.38;;;4.90;99.90;;;;;;5040625;28;20040;-73
2023/01/16 02:15:03;;;;;;;9.50;2.90;;;4.90;99.90;;;;;;5040452;28;20065;-71
2023/01/16 02:20:19;;;;;;;8.93;2.38;;;4.90;99.90;;;;;;5042106;28;20611;-70
2023/01/16 02:23:18;;;;;;;7.57;2.72;;;5.00;99.90;;;;;;5040779;28;20033;-72
2023/01/16 02:26:31;;;;;;;7.25;2.50;;;4.90;99.90;;;;;;5028988;28;20041;-72
2023/01/16 02:29:13;;;;;;;12.52;3.03;;;4.90;99.90;;;;;;5039414;28;20033;-71
2023/01/16 02:31:58;;;;;;;7.53;2.83;;;4.90;99.90;;;;;;5041245;28;20022;-71
2023/01/16 02:35:12;;;;;;;8.45;2.90;;;4.90;99.90;;;;;;5039716;28;20032;-73
2023/01/16 02:37:55;;;;;;;7.70;2.58;;;4.90;99.90;;;;;;5036111;28;20045;-72
2023/01/16 02:40:46;;;;;;;10.35;3.28;;;5.00;99.90;;;;;;5040943;28;20452;-71
2023/01/16 02:43:34;;;;;;;12.38;3.08;;;4.90;99.90;;;;;;5042042;28;20060;-71
2023/01/16 02:46:05;;;;;;;11.82;3.13;;;4.90;99.90;;;;;;5040357;28;20021;-71
2023/01/16 02:48:36;;;;;;;9.27;2.90;;;4.90;99.90;;;;;;5039797;28;20056;-71
2023/01/16 02:51:11;;;;;;;14.35;3.50;;;4.90;99.90;;;;;;5040544;28;20049;-71
2023/01/16 02:53:55;;;;;;;16.08;3.80;;;5.00;99.90;;;;;;5040075;28;20804;-70
2023/01/16 02:56:30;;;;;;;;;;;4.90;99.90;;;;;;5040763;28;20560;-71
2023/01/16 02:58:56;;;;;;;15.40;2.92;;;4.90;99.90;;;;;;5040689;28;19909;-72
2023/01/16 03:01:22;;;;;;;11.18;3.80;;;4.90;99.90;;;;;;5039787;28;20026;-73
2023/01/16 03:03:51;;;;;;;9.45;3.75;;;4.80;99.90;;;;;;5039776;28;20136;-70
2023/01/16 03:06:19;;;;;;;12.27;3.85;;;4.80;99.90;;;;;;5039587;28;20025;-72
2023/01/16 03:09:09;;;;;;;9.75;3.28;;;4.80;99.90;;;;;;5039992;28;20065;-74
2023/01/16 03:11:55;;;;;;;9.13;3.28;;;4.80;99.90;;;;;;5039562;28;20026;-74
2023/01/16 03:15:03;;;;;;;9.70;3.30;;;4.70;99.90;;;;;;5041264;28;20044;-73
2023/01/16 03:17:44;;;;;;;8.23;3.53;;;4.80;99.90;;;;;;5039218;28;20072;-71
2023/01/16 03:20:24;;;;;;;11.65;3.47;;;4.80;99.90;;;;;;5040916;28;20552;-70
2023/01/16 03:23:12;;;;;;;11.90;3.60;;;4.80;99.90;;;;;;5039269;28;20029;-71
2023/01/16 03:25:45;;;;;;;13.25;3.80;;;4.80;99.90;;;;;;5040718;28;20100;-72
2023/01/16 03:28:27;;;;;;;10.20;3.33;;;4.90;99.90;;;;;;5040529;28;20063;-71
2023/01/16 03:31:08;;;;;;;12.68;3.28;;;4.80;99.90;;;;;;5039371;28;20021;-74
2023/01/16 03:33:43;;;;;;;15.77;3.58;;;4.80;99.90;;;;;;5039416;28;20041;-70
2023/01/16 03:36:36;;;;;;;9.77;3.10;;;4.90;99.90;;;;;;5041139;28;20053;-72
2023/01/16 03:39:10;;;;;;;9.68;2.70;;;4.80;99.90;;;;;;5039196;28;20049;-71
2023/01/16 03:41:38;;;;;;;9.45;3.33;;;4.80;99.90;;;;;;5043542;28;20025;-70
2023/01/16 03:44:11;;;;;;;10.80;3.17;;;4.90;99.90;;;;;;5045081;28;20037;-73
2023/01/16 03:46:48;;;;;;;9.07;2.67;;;4.90;99.90;;;;;;5044533;28;20055;-73
2023/01/16 03:49:27;;;;;;;16.10;2.90;;;4.90;99.90;;;;;;5044905;28;20021;-73
2023/01/16 03:51:59;;;;;;;13.52;2.83;;;4.90;99.90;;;;;;5045139;28;20041;-70
2023/01/16 03:54:43;;;;;;;11.48;2.78;;;5.00;99.90;;;;;;5044479;28;20509;-72
2023/01/16 03:57:30;;;;;;;10.88;2.65;;;4.90;99.90;;;;;;5040997;28;20498;-69
2023/01/16 03:59:56;;;;;;;8.10;2.88;;;4.90;99.90;;;;;;5042807;28;20117;-70
2023/01/16 04:02:41;;;;;;;8.43;2.97;;;4.80;99.90;;;;;;5043586;28;20045;-72
2023/01/16 04:05:22;;;;;;;10.40;2.50;;;4.80;99.90;;;;;;5043538;28;20052;-72
2023/01/16 04:08:01;;;;;;;8.68;2.45;;;4.80;99.90;;;;;;5044368;28;20021;-73
2023/01/16 04:10:39;;;;;;;8.25;2.88;;;4.80;99.90;;;;;;5042869;28;20415;-74
2023/01/16 04:13:14;;;;;;;9.30;2.50;;;4.80;99.90;;;;;;5043713;28;20032;-71
2023/01/16 04:15:48;;;;;;;11.93;2.30;;;4.80;99.90;;;;;;5042675;28;20026;-71
2023/01/16 04:18:14;;;;;;;5.47;2.45;;;4.80;99.90;;;;;;5043560;28;20017;-70
2023/01/16 04:20:43;;;;;;;7.43;2.40;;;4.80;99.90;;;;;;5043652;28;20056;-71
2023/01/16 04:23:09;;;;;;;9.77;2.40;;;4.80;99.90;;;;;;5044056;28;20093;-72
2023/01/16 04:25:35;;;;;;;7.90;1.95;;;4.70;99.90;;;;;;5042838;28;20053;-69
2023/01/16 04:28:00;;;;;;;6.05;2.30;;;4.70;99.90;;;;;;5044130;28;20089;-70
2023/01/16 04:30:26;;;;;;;7.97;2.42;;;4.70;99.90;;;;;;5043457;28;20029;-72
2023/01/16 04:32:52;;;;;;;6.97;2.17;;;4.70;99.90;;;;;;5044147;28;20086;-68
2023/01/16 04:35:19;;;;;;;5.55;1.95;;;4.70;99.90;;;;;;5040870;28;20032;-69
2023/01/16 04:37:45;;;;;;;9.38;2.03;;;4.70;99.90;;;;;;5042287;28;20079;-71
2023/01/16 04:40:11;;;;;;;10.80;2.10;;;4.70;99.90;;;;;;5042494;28;20048;-68
2023/01/16 04:42:36;;;;;;;6.78;2.30;;;4.70;99.90;;;;;;5041916;28;20042;-69
2023/01/16 04:45:03;;;;;;;4.38;1.40;;;4.70;99.90;;;;;;5043258;28;20025;-69
2023/01/16 04:47:28;;;;;;;9.07;2.03;;;4.70;99.90;;;;;;5042992;28;20026;-70
2023/01/16 04:49:54;;;;;;;8.68;2.00;;;4.60;99.90;;;;;;5043648;28;20021;-69
2023/01/16 04:52:20;;;;;;;10.88;2.80;;;4.60;99.90;;;;;;5041423;28;20026;-71
2023/01/16 04:54:45;;;;;;;4.65;1.83;;;4.60;99.90;;;;;;5043465;28;20071;-73
2023/01/16 04:57:11;;;;;;;5.63;2.13;;;4.60;99.90;;;;;;5043216;28;20375;-71
2023/01/16 04:59:36;;;;;;;11.60;2.03;;;4.60;99.90;;;;;;5043822;28;20029;-72
2023/01/16 05:02:02;;;;;;;10.68;2.10;;;4.60;99.90;;;;;;5043406;28;20025;-75
2023/01/16 05:04:28;;;;;;;5.30;2.25;;;4.50;99.90;;;;;;5042364;28;20482;-74
2023/01/16 05:06:54;;;;;;;6.80;2.00;;;4.60;99.90;;;;;;5042375;28;20033;-73
2023/01/16 05:09:20;;;;;;;7.43;1.92;;;4.50;99.90;;;;;;5041724;28;20021;-73
2023/01/16 05:11:46;;;;;;;8.32;2.55;;;4.50;99.90;;;;;;5043597;28;20026;-74
2023/01/16 05:14:11;;;;;;;8.60;2.33;;;4.40;99.90;;;;;;5042152;28;20039;-74
2023/01/16 05:16:41;;;;;;;8.45;2.55;;;4.40;99.90;;;;;;5040988;28;20394;-73
2023/01/16 05:19:07;;;;;;;9.70;2.78;;;4.40;99.90;;;;;;5041767;28;20040;-73
2023/01/16 05:21:32;;;;;;;12.38;2.42;;;4.40;99.90;;;;;;5042975;28;20025;-73
2023/01/16 05:23:58;;;;;;;9.07;2.45;;;4.40;99.90;;;;;;5043111;28;20053;-73
2023/01/16 05:26:24;;;;;;;8.93;2.50;;;4.40;99.90;;;;;;5041415;28;20069;-74
2023/01/16 05:28:50;;;;;;;5.60;2.45;;;4.40;99.90;;;;;;5043035;28;20021;-73
2023/01/16 05:31:16;;;;;;;6.85;2.30;;;4.40;99.90;;;;;;5041837;28;20064;-73
2023/01/16 05:33:41;;;;;;;10.00;2.85;;;4.40;99.90;;;;;;5043331;28;20026;-72
2023/01/16 05:36:07;;;;;;;5.85;2.72;;;4.40;99.90;;;;;;5043064;28;20034;-72
2023/01/16 05:38:33;;;;;;;9.35;3.17;;;4.40;99.90;;;;;;5041464;28;20037;-73
2023/01/16 05:40:58;;;;;;;8.10;2.67;;;4.40;99.90;;;;;;5042978;28;20053;-71
2023/01/16 05:43:25;;;;;;;13.60;2.70;;;4.40;99.90;;;;;;5041378;28;20041;-73
2023/01/16 05:45:51;;;;;;;6.85;2.80;;;4.40;99.90;;;;;;5042319;28;20013;-72
2023/01/16 05:48:16;;;;;;;6.13;2.58;;;4.40;99.90;;;;;;5043115;28;20088;-73
2023/01/16 05:50:42;;;;;;;8.63;2.38;;;4.40;99.90;;;;;;5042212;28;20026;-71
2023/01/16 05:53:07;;;;;;;15.38;3.60;;;4.40;99.90;;;;;;5041279;28;20038;-72
2023/01/16 05:55:41;;;;;;;11.38;3.67;;;4.40;99.90;;;;;;5041159;28;20021;-71
2023/01/16 05:58:09;;;;;;;6.05;2.92;;;4.40;99.90;;;;;;5040563;28;20025;-70
2023/01/16 06:00:35;;;;;;;12.60;3.47;;;4.40;99.90;;;;;;5042026;28;20029;-72
2023/01/16 06:03:01;;;;;;;10.50;3.22;;;4.40;99.90;;;;;;5041754;28;20040;-70
2023/01/16 06:05:27;;;;;;;7.82;2.92;;;4.40;99.90;;;;;;5042286;28;20364;-70
2023/01/16 06:07:56;;;;;;;15.18;2.95;;;4.50;99.90;;;;;;5038242;28;20109;-71
2023/01/16 06:10:22;;;;;;;8.52;2.78;;;4.40;99.90;;;;;;5041687;28;20025;-71
2023/01/16 06:12:48;;;;;;;10.90;3.08;;;4.40;99.90;;;;;;5040720;28;20084;-72
2023/01/16 06:15:14;;;;;;;8.23;2.85;;;4.50;99.90;;;;;;5042614;28;20053;-71
2023/01/16 06:17:40;;;;;;;7.75;2.85;;;4.50;99.90;;;;;;5042007;28;20105;-73
2023/01/16 06:20:05;;;;;;;9.20;2.78;;;4.50;99.90;;;;;;5040722;28;20040;-71
2023/01/16 06:22:31;;;;;;;6.40;2.10;;;4.50;99.90;;;;;;5041762;28;20029;-71
2023/01/16 06:24:56;;;;;;;10.00;3.30;;;4.50;99.90;;;;;;5041743;28;20045;-71
2023/01/16 06:27:22;;;;;;;15.77;3.90;;;4.40;99.90;;;;;;5040853;28;20027;-70
2023/01/16 06:29:48;;;;;;;11.00;3.47;;;4.40;99.90;;;;;;5041986;28;20129;-72
2023/01/16 06:32:16;;;;;;;6.88;3.13;;;4.40;99.90;;;;;;5041830;28;20500;-70
2023/01/16 06:34:45;;;;;;;9.60;4.10;;;4.40;99.90;;;;;;5040639;28;20025;-71
2023/01/16 06:37:11;;;;;;;6.30;2.85;;;4.40;99.90;;;;;;5041596;28;20033;-69
2023/01/16 06:39:37;;;;;;;10.63;4.82;;;4.40;99.90;;;;;;5040529;28;20025;-70
2023/01/16 06:42:04;;;;;;;8.35;4.18;;;4.40;99.90;;;;;;5037767;28;20051;-70
2023/01/16 06:44:31;;;;;;;10.07;4.43;;;4.40;99.90;;;;;;5041547;28;20045;-71
2023/01/16 06:46:56;;;;;;;11.23;4.57;;;4.40;99.90;;;;;;5039592;28;20109;-70
2023/01/16 06:49:22;;;;;;;15.32;4.97;;;4.40;99.90;;;;;;5040202;28;21444;-70
2023/01/16 06:51:48;;;;;;;13.25;5.32;;;4.40;99.90;;;;;;5037052;28;20105;-71
2023/01/16 06:54:13;;;;;;;12.07;4.97;;;4.30;99.90;;;;;;5038569;28;20687;-70
2023/01/16 06:56:39;;;;;;;14.23;4.78;;;4.30;99.90;;;;;;5036313;28;20973;-70
2023/01/16 06:59:05;;;;;;;14.23;5.35;;;4.30;99.90;;;;;;5040076;28;20403;-70
2023/01/16 07:01:33;;;;;;;11.88;5.30;;;4.30;99.90;;;;;;5037873;28;20501;-71
2023/01/16 07:03:59;;;;;;;15.05;5.47;;;4.30;99.90;;;;;;5038492;28;20045;-71
2023/01/16 07:06:24;;;;;;;13.43;5.20;;;4.30;99.90;;;;;;5040970;28;20152;-71
2023/01/16 07:08:50;;;;;;;9.50;5.28;;;4.30;99.90;;;;;;5040009;28;20044;-71
2023/01/16 07:11:17;;;;;;;18.67;4.90;;;4.20;99.90;;;;;;5040400;28;20025;-73
2023/01/16 07:13:42;;;;;;;12.68;4.57;;;4.30;99.90;;;;;;5039967;28;20049;-71
2023/01/16 07:24:29;;;;;;;12.38;4.45;;;4.20;99.90;;;;;;5044039;28;20121;-73
2023/01/16 07:26:57;;;;;;;12.70;4.50;;;4.20;99.90;;;;;;5043026;28;20049;-74
2023/01/16 07:29:25;;;;;;;13.73;3.72;;;4.20;99.90;;;;;;5042078;28;20466;-71
2023/01/16 07:31:51;;;;;;;12.50;4.00;;;4.30;99.90;;;;;;5043500;28;20081;-71
2023/01/16 07:34:16;;;;;;;8.35;2.80;;;4.20;99.90;;;;;;5044817;28;20061;-71
2023/01/16 07:36:42;;;;;;;14.02;2.92;;;4.20;99.90;;;;;;5040884;28;20033;-72
2023/01/16 07:39:07;;;;;;;6.57;2.72;;;4.20;99.90;;;;;;5039751;28;20061;-71
2023/01/16 07:41:33;;;;;;;8.60;2.67;;;4.30;99.90;;;;;;5039922;28;20475;-71
2023/01/16 07:43:58;;;;;;;16.17;2.85;;;4.20;99.90;;;;;;5042095;28;20088;-70
2023/01/16 07:46:24;;;;;;;12.48;2.72;;;4.30;99.90;;;;;;5041983;28;20033;-70
2023/01/16 07:48:52;;;;;;;6.00;2.10;;;4.30;99.90;;;;;;5042335;28;20037;-72
2023/01/16 07:51:18;;;;;;;12.25;2.70;;;4.30;99.90;;;;;;5042428;28;20026;-71
2023/01/16 07:53:43;;;;;;;6.30;1.92;;;4.30;99.90;;;;;;5041402;28;20405;-71
2023/01/16 07:56:09;;;;;;;10.30;2.38;;;4.30;99.90;;;;;;5042639;28;20035;-69
2023/01/16 07:58:35;;;;;;;11.35;2.50;;;4.30;99.90;;;;;;5044043;28;20026;-72
2023/01/16 08:01:01;;;;;;;7.93;2.05;;;4.30;99.90;;;;;;5042426;28;20048;-72
2023/01/16 08:03:27;;;;;;;10.73;2.30;;;4.30;99.90;;;;;;5042827;28;20038;-71
2023/01/16 08:05:57;;;;;;;7.32;2.30;;;4.30;99.90;;;;;;5043958;28;20029;-69
2023/01/16 08:08:25;;;;;;;3.28;1.70;;;4.30;99.90;;;;;;5041846;28;20029;-72
2023/01/16 08:10:53;;;;;;;7.78;2.20;;;4.30;99.90;;;;;;5043539;28;20025;-70
2023/01/16 08:13:19;;;;;;;7.50;2.13;;;4.30;99.90;;;;;;5042004;28;20025;-70
2023/01/16 08:15:45;;;;;;;6.15;1.75;;;4.30;99.90;;;;;;5043073;28;20044;-69
2023/01/16 08:18:12;;;;;;;8.13;2.03;;;4.30;99.90;;;;;;5042458;28;20044;-70
2023/01/16 08:20:37;;;;;;;10.10;1.90;;;4.30;99.90;;;;;;5042076;28;20028;-72
2023/01/16 08:23:03;;;;;;;8.25;1.98;;;4.30;99.90;;;;;;5043369;28;20049;-70
2023/01/16 08:25:29;;;;;;;6.75;1.73;;;4.30;99.90;;;;;;5043487;28;20060;-71
2023/01/16 08:27:54;;;;;;;7.03;2.33;;;4.30;99.90;;;;;;5041843;28;20021;-72
2023/01/16 08:30:20;;;;;;;7.95;2.10;;;4.30;99.90;;;;;;5041864;28;20044;-70
2023/01/16 08:32:46;;;;;;;3.83;1.90;;;4.30;99.90;;;;;;5043670;28;20037;-70
2023/01/16 08:35:25;;;;;;;5.15;2.22;;;4.20;99.90;;;;;;5043018;28;20041;-71
2023/01/16 08:37:51;;;;;;;4.72;2.05;;;4.20;99.90;;;;;;5043141;28;20021;-73
2023/01/16 08:40:17;;;;;;;7.80;2.08;;;4.30;99.90;;;;;;5043490;28;20029;-73
2023/01/16 08:53:44;;;;;;;3.30;2.05;;;4.30;99.90;;;;;;5041713;28;20080;-71
2023/01/16 08:56:10;;;;;;;8.48;2.67;;;4.20;99.90;;;;;;5041953;28;20823;-72
2023/01/16 08:58:35;;;;;;;6.85;2.15;;;4.20;99.90;;;;;;5041453;28;20514;-72
2023/01/16 09:01:01;;;;;;;4.18;2.15;;;4.30;99.90;;;;;;5041460;28;20048;-71
2023/01/16 09:03:27;;;;;;;7.82;2.45;;;4.30;99.90;;;;;;5041165;28;20457;-73
2023/01/16 09:05:59;;;;;;;7.35;2.25;;;4.30;99.90;;;;;;5040272;28;20025;-72
2023/01/16 09:08:33;;;;;;;4.93;1.80;;;4.30;99.90;;;;;;5039205;28;20063;-71
2023/01/16 09:13:49;;;;;;;4.55;1.70;;;4.30;99.90;;;;;;5041635;28;20040;-72
2023/01/16 09:16:20;;;;;;;2.95;1.65;;;4.40;99.90;;;;;;5040738;28;20475;-73
2023/01/16 09:18:51;;;;;;;6.07;2.22;;;4.40;99.90;;;;;;5037876;28;21529;-74
2023/01/16 09:21:19;;;;;;;10.18;2.22;;;4.40;99.90;;;;;;5037385;28;20081;-71
2023/01/16 09:23:49;;;;;;;4.88;2.28;;;4.40;99.90;;;;;;5039196;28;20037;-71
2023/01/16 09:26:14;;;;;;;9.27;1.63;;;4.40;99.90;;;;;;5039859;28;20069;-71
2023/01/16 09:28:40;;;;;;;4.75;1.70;;;4.50;99.90;;;;;;5041183;28;20033;-72
2023/01/16 09:31:06;;;;;;;6.78;1.65;;;4.50;99.90;;;;;;5039496;28;20076;-69
2023/01/16 09:33:31;;;;;;;7.82;2.13;;;4.50;99.90;;;;;;5040004;28;20052;-73
2023/01/16 09:35:57;;;;;;;3.40;1.40;;;4.60;99.90;;;;;;5038037;28;20022;-71
2023/01/16 09:38:23;;;;;;;7.60;1.95;;;4.60;99.90;;;;;;5039299;28;20096;-71
2023/01/16 09:40:54;;;;;;;8.20;2.42;;;4.60;99.90;;;;;;5039682;28;20051;-69
2023/01/16 09:43:47;;;;;;;8.13;2.25;;;4.60;99.90;;;;;;5038372;28;20041;-73
2023/01/16 09:46:19;;;;;;;4.10;1.70;;;4.60;99.90;;;;;;5037068;28;20041;-74
2023/01/16 09:48:56;;;;;;;5.93;1.77;;;4.60;99.90;;;;;;5040216;28;20035;-73
2023/01/16 09:51:34;;;;;;;5.65;2.28;;;4.60;99.90;;;;;;5039694;28;20049;-71
2023/01/16 10:00:01;;;;;;;5.68;2.60;;;4.70;99.90;;;;;;5041751;28;20164;-73
2023/01/16 10:02:32;;;;;;;4.40;2.22;;;4.70;99.90;;;;;;5040279;28;20064;-74
2023/01/16 10:05:01;;;;;;;3.20;1.90;;;4.70;99.90;;;;;;5041534;28;20069;-75
2023/01/16 10:07:38;;;;;;;4.25;2.00;;;4.70;99.90;;;;;;5041087;28;20486;-74
2023/01/16 10:10:13;;;;;;;4.47;2.40;;;4.70;99.90;;;;;;5039938;28;20490;-74
2023/01/16 10:12:41;;;;;;;3.03;1.90;;;4.80;99.90;;;;;;5041299;28;20018;-73
2023/01/16 10:15:19;;;;;;;4.75;2.08;;;4.80;99.90;;;;;;5040847;28;20021;-73
2023/01/16 10:17:54;;;;;;;3.10;1.55;;;4.80;99.90;;;;;;5037551;28;21383;-73
2023/01/16 10:20:25;;;;;;;8.27;2.15;;;4.90;99.90;;;;;;5039954;28;20034;-73
2023/01/16 10:23:11;;;;;;;3.33;1.98;;;4.90;99.90;;;;;;5039381;28;20144;-74
2023/01/16 10:25:46;;;;;;;3.25;1.98;;;4.90;99.90;;;;;;5041742;28;20054;-73
2023/01/16 10:28:44;;;;;;;6.55;2.42;;;4.90;99.90;;;;;;5038484;28;20027;-74
2023/01/16 10:31:33;;;;;;;5.15;2.03;;;5.00;99.90;;;;;;5038896;28;20082;-74
2023/01/16 10:34:05;;;;;;;4.70;2.17;;;5.00;99.90;;;;;;5040056;28;20068;-73
2023/01/16 10:36:46;;;;;;;6.50;2.22;;;5.00;99.90;;;;;;5041064;28;20028;-73
2023/01/16 10:39:14;;;;;;;3.42;1.70;;;5.00;99.90;;;;;;5040874;28;20044;-73
2023/01/16 10:50:37;;;;;;;6.95;2.40;;;5.10;99.90;;;;;;5041422;28;20032;-74
2023/01/16 10:53:10;;;;;;;5.25;1.60;;;5.20;99.90;;;;;;5039910;28;20025;-74
2023/01/16 10:55:39;;;;;;;3.70;1.98;;;5.20;99.90;;;;;;5041431;28;20022;-71
2023/01/16 10:58:16;;;;;;;6.13;1.45;;;5.20;99.90;;;;;;5039717;28;20025;-71
2023/01/16 11:00:43;;;;;;;6.03;2.03;;;5.20;99.90;;;;;;5035611;28;20460;-73
2023/01/16 11:03:17;;;;;;;4.93;1.85;;;5.40;99.90;;;;;;5033166;28;20069;-69
2023/01/16 11:05:45;;;;;;;;;;;5.30;99.90;;;;;;5040565;28;20025;-73
2023/01/16 11:08:12;;;;;;;3.38;1.90;;;5.40;99.90;;;;;;5038159;28;19905;-72
2023/01/16 11:10:40;;;;;;;9.02;1.75;;;5.50;99.90;;;;;;5040410;28;20028;-72
2023/01/16 11:19:15;;;;;;;3.22;1.58;;;5.50;99.90;;;;;;5039154;28;20067;-72
2023/01/16 11:21:43;;;;;;;4.75;1.80;;;5.50;99.90;;;;;;5037886;28;20056;-73
2023/01/16 11:24:39;;;;;;;4.53;1.48;;;5.50;99.90;;;;;;5039089;28;20037;-73
2023/01/16 11:27:11;;;;;;;4.65;1.95;;;5.50;99.90;;;;;;5036430;28;20045;-72
2023/01/16 11:29:39;;;;;;;3.97;1.63;;;5.40;99.90;;;;;;5039189;28;20911;-72
2023/01/16 11:32:12;;;;;;;5.30;1.85;;;5.40;99.90;;;;;;5037312;28;20093;-72
2023/01/16 11:34:44;;;;;;;5.28;2.15;;;5.40;99.90;;;;;;5040097;28;20029;-72
2023/01/16 11:37:13;;;;;;;7.03;2.10;;;5.40;99.90;;;;;;5036066;28;20044;-73
2023/01/16 11:39:39;;;;;;;6.15;2.10;;;5.30;99.90;;;;;;5032431;28;20026;-71
2023/01/16 11:47:49;;;;;;;5.38;1.70;;;5.40;99.90;;;;;;5041179;28;20063;-70
2023/01/16 11:50:58;;;;;;;2.70;0.73;;;5.30;99.90;;;;;;5038506;28;20053;-73
2023/01/16 11:53:31;;;;;;;4.68;1.70;;;5.20;99.90;;;;;;5048404;28;20070;-73
2023/01/16 11:56:20;;;;;;;5.88;1.55;;;5.10;99.90;;;;;;5041343;28;20025;-75
2023/01/16 11:59:26;;;;;;;2.83;1.17;;;5.10;99.90;;;;;;5039689;28;20034;-72
2023/01/16 12:02:25;;;;;;;5.22;1.50;;;5.00;99.90;;;;;;5039635;28;20026;-72
2023/01/16 12:08:20;;;;;;;5.10;1.88;;;5.00;99.90;;;;;;5042320;28;20531;-73
2023/01/16 12:11:00;;;;;;;7.32;2.05;;;5.00;99.90;;;;;;5044014;28;20021;-73
2023/01/16 12:17:08;;;;;;;6.13;1.90;;;5.00;99.90;;;;;;5043898;28;20064;-73
2023/01/16 12:19:55;;;;;;;4.07;1.50;;;5.00;99.90;;;;;;5044301;28;20482;-73
2023/01/16 12:22:40;;;;;;;9.68;2.13;;;5.00;99.90;;;;;;5042749;28;20116;-73
2023/01/16 12:25:34;;;;;;;7.13;1.90;;;5.00;99.90;;;;;;5044490;28;20100;-74
2023/01/16 12:28:27;;;;;;;4.47;1.63;;;5.00;99.90;;;;;;5041816;28;20035;-72
2023/01/16 12:31:38;;;;;;;4.75;1.40;;;5.00;99.90;;;;;;5042383;28;20063;-76
2023/01/16 12:34:22;;;;;;;8.55;1.55;;;5.00;99.90;;;;;;5040850;28;20033;-74
2023/01/16 12:37:03;;;;;;;;;;;5.00;99.90;;;;;;5043886;28;20041;-76
2023/01/16 12:39:48;;;;;;;12.05;1.80;;;5.00;99.90;;;;;;5041329;28;19923;-75
2023/01/16 12:46:01;;;;;;;6.55;1.65;;;4.90;99.90;;;;;;5043717;28;20108;-71
2023/01/16 12:48:37;;;;;;;6.55;1.85;;;4.90;99.90;;;;;;5042566;28;20108;-72
2023/01/16 12:51:02;;;;;;;14.70;2.58;;;4.90;99.90;;;;;;5041663;28;20116;-73
2023/01/16 12:53:54;;;;;;;8.02;1.98;;;4.90;99.90;;;;;;5043995;28;20034;-73
2023/01/16 12:56:35;;;;;;;5.60;2.15;;;4.90;99.90;;;;;;5042285;28;20077;-74
2023/01/16 12:59:31;;;;;;;10.68;1.95;;;4.90;99.90;;;;;;5042364;28;20060;-75
2023/01/16 13:02:12;;;;;;;3.80;1.92;;;5.00;99.90;;;;;;5042195;28;20516;-74
2023/01/16 13:05:02;;;;;;;5.28;2.15;;;5.00;99.90;;;;;;5043097;28;20029;-74
2023/01/16 13:07:56;;;;;;;4.25;1.90;;;5.00;99.90;;;;;;5039684;28;20052;-73
2023/01/16 13:13:39;;;;;;;12.85;2.30;;;5.10;99.90;;;;;;5041029;28;20037;-76
2023/01/16 13:16:13;;;;;;;5.25;2.22;;;5.10;99.90;;;;;;5040837;28;20386;-74
2023/01/16 13:18:55;;;;;;;3.10;1.10;;;5.10;99.90;;;;;;5041262;28;20037;-73
2023/01/16 13:21:27;;;;;;;12.38;2.17;;;5.20;99.90;;;;;;5042573;28;20033;-74
2023/01/16 13:24:10;;;;;;;3.10;1.30;;;5.20;99.90;;;;;;5040882;28;20037;-74
2023/01/16 13:26:37;;;;;;;4.93;2.05;;;5.20;99.90;;;;;;5041142;28;20052;-73
2023/01/16 13:29:27;;;;;;;5.13;1.67;;;5.20;99.90;;;;;;5040391;28;20029;-73
2023/01/16 13:32:20;;;;;;;11.02;1.83;;;5.20;99.90;;;;;;5041102;28;20037;-74
2023/01/16 13:34:56;;;;;;;5.78;2.10;;;5.20;99.90;;;;;;5034285;28;20375;-76
2023/01/16 13:37:43;;;;;;;4.28;1.92;;;5.30;99.90;;;;;;5039700;28;20379;-74
2023/01/16 13:40:12;;;;;;;4.78;1.92;;;5.20;99.90;;;;;;5040681;28;20038;-73
2023/01/16 13:42:49;;;;;;;3.00;1.33;;;5.20;99.90;;;;;;5040471;28;20026;-75
2023/01/16 13:45:50;;;;;;;3.33;1.05;;;5.20;99.90;;;;;;5040036;28;20091;-75
2023/01/16 13:48:26;;;;;;;8.50;2.17;;;5.20;99.90;;;;;;5040552;28;20046;-75
2023/01/16 13:51:03;;;;;;;4.63;1.40;;;5.30;99.90;;;;;;5040200;28;20060;-77
2023/01/16 13:53:31;;;;;;;3.28;0.85;;;5.30;99.90;;;;;;5038282;28;20134;-75
2023/01/16 13:56:12;;;;;;;4.93;1.60;;;5.30;99.90;;;;;;5041504;28;20029;-76
2023/01/16 13:58:40;;;;;;;8.80;2.10;;;5.30;99.90;;;;;;5040164;28;20022;-75
2023/01/16 14:01:06;;;;;;;7.70;1.40;;;5.30;99.90;;;;;;5041182;28;20025;-74
2023/01/16 14:03:36;;;;;;;3.58;1.10;;;5.40;99.90;;;;;;5039696;28;20041;-73
2023/01/16 14:06:10;;;;;;;4.72;1.38;;;5.40;99.90;;;;;;5036885;28;20525;-74
2023/01/16 14:09:10;;;;;;;5.03;1.60;;;5.30;99.90;;;;;;5039760;28;20039;-76
2023/01/16 14:11:36;;;;;;;4.72;1.60;;;5.40;99.90;;;;;;5039330;28;20098;-73
2023/01/16 14:17:17;;;;;;;4.18;1.05;;;5.30;99.90;;;;;;5038942;28;20087;-75
2023/01/16 14:19:56;;;;;;;2.60;0.98;;;5.30;99.90;;;;;;5038753;28;20029;-71
2023/01/16 14:24:58;;;;;;;1.20;0.50;;;5.20;99.90;;;;;;5038494;28;20048;-74
2023/01/16 14:27:40;;;;;;;4.55;1.30;;;5.20;99.90;;;;;;5035259;28;20036;-76
2023/01/16 14:30:25;;;;;;;4.35;1.20;;;5.10;99.90;;;;;;5040190;28;20030;-73
2023/01/16 14:32:58;;;;;;;10.52;1.52;;;5.00;99.90;;;;;;5037446;28;20035;-73
2023/01/16 14:35:31;;;;;;;6.82;1.58;;;5.00;99.90;;;;;;5039116;28;20029;-71